createdAt,value
2023-04-22T00:02:41.098Z,6.57
2023-04-22T00:06:17.174Z,6.50
2023-04-22T00:10:12.783Z,6.45
2023-04-22T00:13:38.618Z,6.38
2023-04-22T00:17:31.351Z,6.31
2023-04-22T00:20:59.957Z,6.20
2023-04-22T00:24:48.016Z,6.12
2023-04-22T00:28:38.203Z,6.08
2023-04-22T00:32:14.691Z,6.09
2023-04-22T00:35:37.848Z,6.10
2023-04-22T00:39:33.203Z,6.08
2023-04-22T00:43:10.091Z,6.06
2023-04-22T00:46:31.652Z,6.02
2023-04-22T00:50:26.349Z,5.94
2023-04-22T00:53:46.322Z,5.90
2023-04-22T00:57:42.421Z,5.88
2023-04-22T01:01:01.030Z,5.85
2023-04-22T01:04:56.293Z,5.79
2023-04-22T01:08:41.237Z,5.68
2023-04-22T01:12:01.576Z,5.60
2023-04-22T01:15:54.234Z,5.58
2023-04-22T01:19:17.708Z,5.55
2023-04-22T01:22:57.661Z,5.50
2023-04-22T01:26:30.512Z,5.43
2023-04-22T01:30:34.162Z,5.35
2023-04-22T01:33:53.095Z,5.32
2023-04-22T01:37:31.985Z,5.29
2023-04-22T01:41:09.633Z,5.28
2023-04-22T01:44:44.259Z,5.27
2023-04-22T01:48:30.553Z,5.25
2023-04-22T01:52:15.126Z,5.20
2023-04-22T01:55:44.492Z,5.14
2023-04-22T01:59:47.761Z,5.09
2023-04-22T02:03:17.224Z,5.06
2023-04-22T02:06:46.566Z,5.01
2023-04-22T02:10:24.211Z,4.94
2023-04-22T02:14:25.866Z,4.89
2023-04-22T02:18:02.363Z,4.87
2023-04-22T02:21:23.193Z,4.88
2023-04-22T02:25:24.848Z,4.88
2023-04-22T02:28:46.425Z,4.87
2023-04-22T02:32:40.421Z,4.83
2023-04-22T02:36:17.891Z,4.78
2023-04-22T02:39:39.016Z,4.76
2023-04-22T02:43:18.096Z,4.75
2023-04-22T02:46:54.334Z,4.74
2023-04-22T02:50:48.678Z,4.71
2023-04-22T02:54:10.576Z,4.67
2023-04-22T02:57:57.191Z,4.66
2023-04-22T03:01:41.832Z,4.68
2023-04-22T03:05:02.824Z,4.68
2023-04-22T03:08:50.286Z,4.66
2023-04-22T03:12:18.904Z,4.60
2023-04-22T03:16:10.623Z,4.55
2023-04-22T03:19:50.525Z,4.53
2023-04-22T03:23:37.984Z,4.54
2023-04-22T03:27:07.063Z,4.53
2023-04-22T03:30:44.883Z,4.49
2023-04-22T03:34:21.467Z,4.46
2023-04-22T03:37:42.047Z,4.43
2023-04-22T03:41:46.516Z,4.42
2023-04-22T03:45:16.452Z,4.38
2023-04-22T03:48:44.141Z,4.30
2023-04-22T03:52:38.552Z,4.21
2023-04-22T03:56:14.761Z,4.20
2023-04-22T04:00:06.049Z,4.26
2023-04-22T04:03:15.764Z,4.30
2023-04-22T04:07:10.528Z,4.34
2023-04-22T04:10:32.166Z,4.35
2023-04-22T04:14:34.896Z,4.40
2023-04-22T04:17:48.178Z,4.47
2023-04-22T04:21:39.425Z,4.56
2023-04-22T04:25:20.569Z,4.66
2023-04-22T04:28:53.831Z,4.75
2023-04-22T04:32:35.104Z,4.86
2023-04-22T04:35:58.481Z,4.97
2023-04-22T04:39:33.153Z,5.06
2023-04-22T04:43:10.004Z,5.28
2023-04-22T04:47:06.374Z,5.67
2023-04-22T04:50:43.114Z,5.90
2023-04-22T04:54:21.240Z,6.36
2023-04-22T04:57:40.557Z,6.71
2023-04-22T05:01:28.701Z,6.97
2023-04-22T05:04:59.422Z,7.55
2023-04-22T05:08:51.318Z,7.86
2023-04-22T05:12:29.230Z,8.19
2023-04-22T05:15:59.911Z,8.73
2023-04-22T05:19:25.755Z,8.94
2023-04-22T05:23:29.546Z,9.07
2023-04-22T05:26:50.464Z,9.11
2023-04-22T05:30:54.016Z,9.12
2023-04-22T05:34:04.981Z,9.90
2023-04-22T05:38:00.540Z,10.46
2023-04-22T05:41:37.141Z,10.52
2023-04-22T05:45:17.090Z,10.42
2023-04-22T05:48:54.849Z,10.31
2023-04-22T05:52:28.117Z,10.26
2023-04-22T05:55:51.256Z,10.23
2023-04-22T05:59:46.175Z,10.26
2023-04-22T06:03:21.606Z,10.56
2023-04-22T06:07:03.041Z,10.89
2023-04-22T06:10:38.998Z,10.98
2023-04-22T06:14:14.603Z,11.05
2023-04-22T06:18:04.786Z,11.15
2023-04-22T06:21:33.515Z,11.25
2023-04-22T06:25:10.194Z,11.75
2023-04-22T06:28:48.647Z,12.94
2023-04-22T06:32:25.380Z,13.63
2023-04-22T06:35:46.170Z,15.22
2023-04-22T06:39:41.015Z,16.68
2023-04-22T06:43:18.603Z,17.94
2023-04-22T06:46:39.609Z,19.02
2023-04-22T06:50:33.921Z,19.99
2023-04-22T06:54:11.685Z,20.66
2023-04-22T06:57:42.689Z,21.37
2023-04-22T07:01:10.122Z,22.09
2023-04-22T07:04:47.929Z,22.60
2023-04-22T07:08:42.425Z,23.09
2023-04-22T07:12:30.654Z,23.48
2023-04-22T07:15:41.065Z,23.94
2023-04-22T07:19:18.997Z,24.37
2023-04-22T07:23:11.396Z,24.45
2023-04-22T07:26:34.529Z,24.35
2023-04-22T07:30:32.237Z,24.38
2023-04-22T07:34:04.492Z,24.28
2023-04-22T07:37:42.327Z,24.50
2023-04-22T07:41:22.108Z,24.67
2023-04-22T07:44:41.812Z,24.89
2023-04-22T07:48:26.507Z,25.11
2023-04-22T07:52:12.308Z,25.01
2023-04-22T07:56:00.947Z,24.62
2023-04-22T07:59:37.468Z,24.24
2023-04-22T08:03:13.781Z,23.80
2023-04-22T08:06:45.245Z,23.49
2023-04-22T08:10:22.835Z,23.17
2023-04-22T08:13:49.441Z,22.80
2023-04-22T08:18:00.948Z,22.47
2023-04-22T08:21:29.627Z,22.14
2023-04-22T08:25:09.007Z,21.88
2023-04-22T08:28:27.115Z,21.75
2023-04-22T08:32:03.924Z,21.55
2023-04-22T08:35:46.870Z,21.47
2023-04-22T08:39:48.428Z,21.36
2023-04-22T08:43:10.831Z,21.34
2023-04-22T08:46:47.195Z,21.24
2023-04-22T08:50:49.437Z,21.17
2023-04-22T08:54:26.558Z,21.22
2023-04-22T08:58:05.438Z,21.18
2023-04-22T09:01:41.228Z,21.09
2023-04-22T09:05:04.687Z,21.06
2023-04-22T09:08:50.930Z,20.99
2023-04-22T09:12:19.211Z,20.91
2023-04-22T09:16:22.783Z,20.92
2023-04-22T09:19:32.723Z,20.87
2023-04-22T09:23:17.356Z,20.85
2023-04-22T09:27:11.940Z,20.90
2023-04-22T09:30:32.210Z,20.88
2023-04-22T09:34:16.993Z,20.84
2023-04-22T09:38:12.846Z,20.76
2023-04-22T09:41:55.901Z,20.76
2023-04-22T09:45:09.867Z,20.73
2023-04-22T09:48:55.661Z,20.64
2023-04-22T09:53:00.595Z,20.59
2023-04-22T09:56:42.336Z,20.59
2023-04-22T09:59:48.699Z,20.59
2023-04-22T10:03:40.281Z,20.60
2023-04-22T10:07:21.136Z,20.71
2023-04-22T10:10:50.930Z,20.77
2023-04-22T10:14:35.827Z,20.90
2023-04-22T10:17:57.429Z,21.02
2023-04-22T10:21:57.319Z,21.06
2023-04-22T10:25:26.276Z,21.12
2023-04-22T10:29:00.358Z,21.25
2023-04-22T10:32:30.968Z,21.39
2023-04-22T10:36:17.026Z,21.48
2023-04-22T10:39:43.743Z,21.57
2023-04-22T10:43:37.512Z,21.61
2023-04-22T10:47:04.398Z,21.65
2023-04-22T10:50:36.119Z,21.72
2023-04-22T10:54:59.147Z,21.74
2023-04-22T10:58:19.814Z,21.84
2023-04-22T11:01:33.074Z,21.94
2023-04-22T11:05:26.459Z,21.99
2023-04-22T11:09:11.564Z,22.02
2023-04-22T11:12:44.220Z,21.91
2023-04-22T11:16:18.870Z,21.80
2023-04-22T11:19:56.289Z,21.79
2023-04-22T11:23:20.377Z,21.67
2023-04-22T11:27:09.832Z,21.73
2023-04-22T11:30:47.578Z,21.86
2023-04-22T11:34:25.304Z,22.09
2023-04-22T11:38:05.484Z,21.99
2023-04-22T11:41:44.346Z,21.84
2023-04-22T11:45:19.887Z,21.78
2023-04-22T11:49:12.131Z,21.64
2023-04-22T11:52:16.933Z,21.55
2023-04-22T11:56:13.466Z,21.60
2023-04-22T11:59:32.439Z,21.73
2023-04-22T12:18:33.048Z,21.94
2023-04-22T13:17:46.195Z,21.49
2023-04-22T13:21:02.398Z,21.61
2023-04-22T13:24:47.083Z,21.79
2023-04-22T13:28:25.863Z,21.91
2023-04-22T13:32:19.466Z,21.92
2023-04-22T13:35:57.020Z,21.94
2023-04-22T13:39:18.031Z,22.02
2023-04-22T13:43:22.483Z,22.11
2023-04-22T13:46:33.534Z,22.27
2023-04-22T13:50:12.450Z,22.39
2023-04-22T13:53:49.865Z,22.44
2023-04-22T13:57:43.926Z,22.51
2023-04-22T14:01:21.255Z,22.58
2023-04-22T14:05:10.020Z,22.70
2023-04-22T14:08:38.811Z,22.75
2023-04-22T14:12:13.403Z,22.79
2023-04-22T14:15:59.834Z,22.87
2023-04-22T14:19:31.202Z,22.82
2023-04-22T14:22:48.546Z,22.80
2023-04-22T14:27:01.340Z,22.64
2023-04-22T14:30:14.131Z,22.60
2023-04-22T14:34:05.442Z,22.59
2023-04-22T14:37:46.546Z,22.59
2023-04-22T14:41:06.033Z,22.66
2023-04-22T14:44:41.903Z,22.65
2023-04-22T14:48:30.970Z,22.60
2023-04-22T14:52:08.652Z,22.61
2023-04-22T14:55:45.059Z,22.58
2023-04-22T14:59:27.629Z,22.51
2023-04-22T15:03:08.664Z,22.49
2023-04-22T15:06:29.139Z,22.50
2023-04-22T15:10:08.151Z,22.50
2023-04-22T15:13:43.376Z,22.50
2023-04-22T15:17:38.082Z,22.36
2023-04-22T15:21:32.644Z,22.23
2023-04-22T15:25:09.823Z,22.20
2023-04-22T15:28:19.217Z,22.12
2023-04-22T15:32:06.758Z,22.01
2023-04-22T15:36:03.516Z,21.93
2023-04-22T15:39:19.423Z,21.84
2023-04-22T15:43:05.280Z,21.74
2023-04-22T15:46:35.765Z,21.58
2023-04-22T15:50:28.370Z,21.41
2023-04-22T15:53:48.253Z,21.23
2023-04-22T15:57:35.135Z,21.01
2023-04-22T16:01:19.378Z,20.83
2023-04-22T16:04:48.473Z,20.65
2023-04-22T16:08:24.064Z,20.46
2023-04-22T16:12:25.620Z,20.27
2023-04-22T16:15:46.865Z,20.10
2023-04-22T16:19:22.431Z,19.92
2023-04-22T16:23:17.201Z,19.77
2023-04-22T16:26:45.769Z,19.65
2023-04-22T16:30:24.029Z,19.51
2023-04-22T16:34:01.303Z,19.40
2023-04-22T16:37:36.866Z,19.29
2023-04-22T16:41:32.009Z,19.20
2023-04-22T16:45:15.997Z,19.11
2023-04-22T16:48:54.096Z,19.05
2023-04-22T16:52:15.851Z,18.95
2023-04-22T16:56:09.174Z,18.85
2023-04-22T16:59:30.083Z,18.74
2023-04-22T17:03:26.946Z,18.62
2023-04-22T17:06:45.851Z,18.48
2023-04-22T17:10:24.138Z,18.32
2023-04-22T17:14:00.042Z,18.17
2023-04-22T17:17:54.779Z,17.99
2023-04-22T17:21:39.535Z,17.82
2023-04-22T17:25:11.275Z,17.66
2023-04-22T17:28:41.321Z,17.48
2023-04-22T17:32:15.578Z,17.29
2023-04-22T17:35:51.288Z,17.06
2023-04-22T17:39:39.991Z,16.84
2023-04-22T17:43:11.686Z,16.63
2023-04-22T17:47:11.168Z,16.40
2023-04-22T17:50:37.685Z,16.22
2023-04-22T17:54:11.604Z,16.01
2023-04-22T17:58:16.291Z,15.81
2023-04-22T18:01:29.560Z,15.64
2023-04-22T18:05:23.204Z,15.43
2023-04-22T18:08:42.465Z,15.24
2023-04-22T18:12:18.766Z,15.03
2023-04-22T18:16:07.386Z,14.84
2023-04-22T18:19:41.826Z,14.64
2023-04-22T18:23:34.711Z,14.46
2023-04-22T18:26:58.672Z,14.30
2023-04-22T18:30:34.253Z,14.11
2023-04-22T18:34:39.082Z,13.98
2023-04-22T18:37:51.800Z,13.86
2023-04-22T18:41:44.139Z,13.71
2023-04-22T18:45:15.622Z,13.57
2023-04-22T18:48:43.569Z,13.44
2023-04-22T18:52:28.379Z,13.26
2023-04-22T18:56:14.258Z,13.11
2023-04-22T18:59:43.628Z,12.97
2023-04-22T19:03:22.534Z,12.82
2023-04-22T19:07:09.070Z,12.69
2023-04-22T19:10:37.177Z,12.56
2023-04-22T19:14:14.775Z,12.43
2023-04-22T19:18:12.606Z,12.31
2023-04-22T19:21:30.100Z,12.20
2023-04-22T19:25:33.483Z,12.09
2023-04-22T19:29:10.184Z,12.00
2023-04-22T19:32:30.317Z,11.90
2023-04-22T19:36:24.892Z,11.79
2023-04-22T19:40:01.605Z,11.69
2023-04-22T19:43:39.855Z,11.62
2023-04-22T19:47:28.727Z,11.53
2023-04-22T19:50:47.274Z,11.45
2023-04-22T19:54:18.402Z,11.31
2023-04-22T19:57:54.586Z,11.21
2023-04-22T20:01:42.628Z,11.11
2023-04-22T20:05:31.081Z,11.02
2023-04-22T20:08:48.928Z,10.94
2023-04-22T20:12:26.170Z,10.85
2023-04-22T20:16:22.558Z,10.75
2023-04-22T20:19:41.208Z,10.65
2023-04-22T20:23:24.046Z,10.54
2023-04-22T20:27:16.476Z,10.44
2023-04-22T20:30:51.021Z,10.36
2023-04-22T20:34:30.838Z,10.28
2023-04-22T20:37:51.046Z,10.21
2023-04-22T20:41:55.238Z,10.19
2023-04-22T20:45:07.174Z,10.19
2023-04-22T20:48:40.369Z,10.14
2023-04-22T20:52:24.913Z,10.09
2023-04-22T20:56:20.844Z,10.01
2023-04-22T20:59:38.824Z,9.94
2023-04-22T21:03:22.516Z,9.86
2023-04-22T21:07:07.954Z,9.74
2023-04-22T21:10:51.554Z,9.64
2023-04-22T21:14:47.161Z,9.54
2023-04-22T21:18:35.022Z,9.48
2023-04-22T21:21:53.263Z,9.45
2023-04-22T21:25:55.378Z,9.45
2023-04-22T21:29:07.772Z,9.43
2023-04-22T21:33:09.140Z,9.39
2023-04-22T21:36:43.082Z,9.34
2023-04-22T21:39:59.216Z,9.26
2023-04-22T21:43:58.872Z,9.19
2023-04-22T21:47:29.578Z,9.11
2023-04-22T21:50:59.432Z,9.03
2023-04-22T21:54:53.794Z,8.97
2023-04-22T21:58:14.992Z,8.93
2023-04-22T22:02:09.178Z,8.90
2023-04-22T22:05:47.008Z,8.89
2023-04-22T22:09:10.019Z,8.86
2023-04-22T22:12:46.624Z,8.80
2023-04-22T22:16:24.850Z,8.73
2023-04-22T22:20:01.227Z,8.64
2023-04-22T22:23:56.851Z,8.53
2023-04-22T22:27:35.549Z,8.45
2023-04-22T22:31:12.030Z,8.44
2023-04-22T22:34:32.070Z,8.42
2023-04-22T22:38:08.067Z,8.40
2023-04-22T22:42:09.891Z,8.36
2023-04-22T22:45:33.997Z,8.30
2023-04-22T22:49:09.273Z,8.20
2023-04-22T22:52:45.886Z,8.11
2023-04-22T22:56:25.270Z,8.05
2023-04-22T23:00:18.619Z,8.03
2023-04-22T23:03:39.131Z,7.98
2023-04-22T23:07:33.362Z,7.93
2023-04-22T23:11:12.304Z,7.87
2023-04-22T23:14:33.402Z,7.82
2023-04-22T23:18:27.584Z,7.79
2023-04-22T23:21:48.917Z,7.80
2023-04-22T23:25:26.429Z,7.80
2023-04-22T23:29:22.129Z,7.79
2023-04-22T23:32:58.311Z,7.78
2023-04-22T23:36:20.400Z,7.74
2023-04-22T23:39:56.185Z,7.66
2023-04-22T23:43:51.579Z,7.62
2023-04-22T23:47:28.315Z,7.61
2023-04-22T23:50:49.077Z,7.63
2023-04-22T23:54:27.093Z,7.62
2023-04-22T23:58:27.303Z,7.59
